Domov               UVHVVR             MKGP            O straneh              
ZDRAVSTVENO VARSTVO RASTLIN
  MREŽA AGROMET. POSTAJ
 ► PROGNOSTIČNA OBVESTILA
AGROMETEOROLOŠKI PODATKI -
ARSO
OBVLADOVANJE TVEGANJ ZARADI
NEUGODNIH VREMENSKIH RAZMER
  ► NARAVNE NESREČE
  ► SUŠA/MOČA
  ► NAMAKANJE
  ► ŽLED (gozdarstvo)
KARTOGRAFSKI PRIKAZI
SPLETNE POVEZAVE
PROJEKTI IN PUBLIKACIJE

AGROMETEOROLOŠKA MREŽA: VREMENSKE POSTAJE IN FENOLOŠKA OPAZOVANJA

Pregled podatkov za lokacijo Branik, meteorološka postaja 42394

Pregled senzorjev na lokaciji

ID Ime Zadnja
vrednost
Datum
zadnje
spremembe
Tip
senzorja
2192 Padavine (mm) 0 mm 21.5.2018 12:00 Rain-O-Matic
2189 Relativna vlaga 2 m (% RH) 39,87 % RH 21.5.2018 12:00 50YA
2188 Temperatura 2 m (°C) 24,86 °C 21.5.2018 12:00 50YA
2193 Smer vetra (°) 40,14 ° 21.5.2018 12:00 566.2S-130
2191 Hitrost vetra (km/h) 7,83 km/h 21.5.2018 12:00 566.2S-176 (200km/h)

Pregled podatkov zadnjih 24 ur

Zap.
št.
Datum in čas Branik
Padavine Relativna
vlaga
2
m
Temperatura
2
m
Smer
vetra
Hitrost
vetra
1 21.5.2018 12:30
2 21.5.2018 12:00
3 21.5.2018 11:30
4 21.5.2018 11:00 0 39,9 24,9 40,1 7,8
5 21.5.2018 10:30 0 41,3 24,5 89,5 6,8
6 21.5.2018 10:00 0 42,4 23,9 86,5 10
7 21.5.2018 09:30 0 43,9 23,2 41,5 9,4
8 21.5.2018 09:00 0 45,6 22,7 75,9 5,5
9 21.5.2018 08:30 0 46,7 21,8 77,4 6,7
10 21.5.2018 08:00 0 48,2 21,3 64,2 5,2
11 21.5.2018 07:30 0 49,4 20,6 76,3 7,1
12 21.5.2018 07:00 0 51 20 63,5 6,4
13 21.5.2018 06:30 0 53,4 19,4 83,7 6,6
14 21.5.2018 06:00 0 53,5 18,9 79,9 5,9
15 21.5.2018 05:30 0 55,1 18 93,8 5,7
16 21.5.2018 05:00 0 55,3 17,8 89,6 5,7
17 21.5.2018 04:30 0 53,9 18,1 96,3 7
18 21.5.2018 04:00 0 54,2 18,2 97,8 7,2
19 21.5.2018 03:30 0 54,6 18,3 99,2 7,9
20 21.5.2018 03:00 0 56,8 18,1 87,9 5,6
21 21.5.2018 02:30 0 56,1 18,3 106,9 7,3
22 21.5.2018 02:00 0 55,2 18,6 103,3 8
23 21.5.2018 01:30 0 55,3 18,8 82,5 6,6
24 21.5.2018 01:00 0 56,9 18,6 113,1 5,2
25 21.5.2018 00:30 0 56,3 18,9 85,9 6,9
26 21.5.2018 00:00 0 56,5 18,9 109,1 7,7
27 20.5.2018 23:30 0 56 19,1 123,8 6,5
28 20.5.2018 23:00 0 56,9 18,9 102 5,4
29 20.5.2018 22:30 0 57,5 18,9 85,7 4
30 20.5.2018 22:00 0 58,2 18,8 83,3 4,8
31 20.5.2018 21:30 0 56,7 19,1 76 4,3
32 20.5.2018 21:00 0 55 19,4 106,4 6
33 20.5.2018 20:30 0 54,1 19,6 106,2 3,8
34 20.5.2018 20:00 0 52,1 20,1 86,6 6,3
35 20.5.2018 19:30 0 50,1 20,6 68,6 5
36 20.5.2018 19:00 0 47,6 21,3 79,2 5,5
37 20.5.2018 18:30 0 45 22,3 38,8 6
38 20.5.2018 18:00 0 42,4 22,9 69,8 6,2
39 20.5.2018 17:30 0 41,8 23,5 78,8 7,3
40 20.5.2018 17:00 0 41 24,3 69,1 4,8
41 20.5.2018 16:30 0 38,1 24,8 53,1 5,7
42 20.5.2018 16:00 0 37,4 24,9 72,7 6,6
43 20.5.2018 15:30 0 39,6 25,1 87,3 5,1
44 20.5.2018 15:00 0 41,3 24,6 46 4,8
45 20.5.2018 14:30 0 42,9 24,9 73,7 5,9
46 20.5.2018 14:00 0 41,8 24,7 60,3 8,1
47 20.5.2018 13:30 0 43,1 24,8 66,4 8,3
48 20.5.2018 13:00 0 43,5 24,6 65,1 6,4
© 2011 Ministrstvo za kmetijstvo, gozdarstvo in prehrano. Vse pravice pridržane.